JAL903 ROAH-RORS
Flight info
| Callsign | JAL903 |
|---|---|
| Flight time | N/A |
| Altitude | 18000 |
| Route | ROAH/36R N0426F260 GANJU2 GANJU Y576 DIANA DCT RORS/35 |
| Aircraft | B734/M-SDE2E3FGHIJ3J4J5M1RWXYZ/LB1D1 |
Departure
| Time | 2026-05-08 07:22 |
|---|---|
| Airport | Naha International Airport (ROAH) |
Arrival
| Time | N/A |
|---|---|
| Airport | Shimojishima Airport (RORS) |
| Time | Latitude | Longitude | Altitude | Speed | Heading |
|---|---|---|---|---|---|
| 2026-05-08 06:50 | 26.20953 | 127.64967 | 28 ft | 0 kts | 88° |
| 2026-05-08 07:11 | 26.20953 | 127.64962 | 27 ft | 2 kts | 90° |
| 2026-05-08 07:12 | 26.20954 | 127.64946 | 26 ft | 2 kts | 105° |
| 2026-05-08 07:12 | 26.20959 | 127.64931 | 25 ft | 2 kts | 116° |
| 2026-05-08 07:12 | 26.20967 | 127.64916 | 24 ft | 2 kts | 129° |
| 2026-05-08 07:12 | 26.20977 | 127.64904 | 23 ft | 2 kts | 141° |
| 2026-05-08 07:13 | 26.20989 | 127.64895 | 23 ft | 2 kts | 153° |
| 2026-05-08 07:13 | 26.21003 | 127.64889 | 23 ft | 2 kts | 165° |
| 2026-05-08 07:13 | 26.21016 | 127.64886 | 23 ft | 2 kts | 175° |
| 2026-05-08 07:13 | 26.21023 | 127.64886 | 23 ft | 0 kts | 180° |
| 2026-05-08 07:15 | 26.21022 | 127.64886 | 23 ft | 0 kts | 180° |
| 2026-05-08 07:15 | 26.21021 | 127.64886 | 23 ft | 0 kts | 180° |
| 2026-05-08 07:15 | 26.21013 | 127.64886 | 23 ft | 2 kts | 180° |
| 2026-05-08 07:15 | 26.20969 | 127.64886 | 23 ft | 9 kts | 182° |
| 2026-05-08 07:16 | 26.20912 | 127.64820 | 21 ft | 16 kts | 266° |
| 2026-05-08 07:16 | 26.20903 | 127.64668 | 23 ft | 21 kts | 262° |
| 2026-05-08 07:16 | 26.20844 | 127.64529 | 26 ft | 21 kts | 187° |
| 2026-05-08 07:16 | 26.20692 | 127.64528 | 24 ft | 22 kts | 179° |
| 2026-05-08 07:17 | 26.20532 | 127.64532 | 24 ft | 23 kts | 178° |
| 2026-05-08 07:17 | 26.20371 | 127.64540 | 24 ft | 23 kts | 177° |
| 2026-05-08 07:17 | 26.20210 | 127.64551 | 25 ft | 22 kts | 176° |
| 2026-05-08 07:17 | 26.20052 | 127.64561 | 27 ft | 22 kts | 177° |
| 2026-05-08 07:18 | 26.19898 | 127.64570 | 28 ft | 22 kts | 176° |
| 2026-05-08 07:18 | 26.19745 | 127.64580 | 29 ft | 22 kts | 178° |
| 2026-05-08 07:18 | 26.19592 | 127.64587 | 31 ft | 21 kts | 177° |
| 2026-05-08 07:18 | 26.19444 | 127.64595 | 32 ft | 21 kts | 177° |
| 2026-05-08 07:19 | 26.19288 | 127.64603 | 30 ft | 25 kts | 178° |
| 2026-05-08 07:19 | 26.19083 | 127.64614 | 30 ft | 33 kts | 176° |
| 2026-05-08 07:19 | 26.18825 | 127.64628 | 28 ft | 41 kts | 176° |
| 2026-05-08 07:19 | 26.18541 | 127.64643 | 27 ft | 31 kts | 177° |
| 2026-05-08 07:20 | 26.18323 | 127.64661 | 22 ft | 23 kts | 171° |
| 2026-05-08 07:20 | 26.18317 | 127.64640 | 22 ft | 8 kts | 10° |
| 2026-05-08 07:20 | 26.18371 | 127.64644 | 23 ft | 6 kts | 354° |
| 2026-05-08 07:20 | 26.18381 | 127.64642 | 23 ft | 0 kts | 356° |
| 2026-05-08 07:21 | 26.18382 | 127.64642 | 23 ft | 1 kts | 356° |
| 2026-05-08 07:21 | 26.18681 | 127.64635 | 28 ft | 87 kts | 359° |
| 2026-05-08 07:22 | 26.19521 | 127.64595 | 154 ft | 141 kts | 357° |
| 2026-05-08 07:22 | 26.20284 | 127.64498 | 1192 ft | 80 kts | 348° |
| 2026-05-08 07:22 | 26.21028 | 127.64246 | 939 ft | 151 kts | 345° |
| 2026-05-08 07:22 | 26.21885 | 127.63953 | 2140 ft | 123 kts | 345° |
| 2026-05-08 07:23 | 26.22634 | 127.63650 | 3028 ft | 109 kts | 334° |
| 2026-05-08 07:23 | 26.23184 | 127.63158 | 3607 ft | 117 kts | 308° |
| 2026-05-08 07:23 | 26.23482 | 127.62178 | 4042 ft | 144 kts | 266° |
| 2026-05-08 07:23 | 26.23067 | 127.61350 | 4994 ft | 126 kts | 206° |
| 2026-05-08 07:24 | 26.22127 | 127.61063 | 5386 ft | 152 kts | 194° |
| 2026-05-08 07:24 | 26.21290 | 127.60941 | 6504 ft | 115 kts | 185° |
| 2026-05-08 07:24 | 26.20437 | 127.60967 | 6900 ft | 135 kts | 176° |
| 2026-05-08 07:24 | 26.19523 | 127.61261 | 7455 ft | 137 kts | 164° |
| 2026-05-08 07:25 | 26.18471 | 127.61340 | 7215 ft | 181 kts | 210° |
| 2026-05-08 07:25 | 26.17650 | 127.60162 | 6684 ft | 194 kts | 254° |
| 2026-05-08 07:25 | 26.15893 | 127.58330 | 5216 ft | 211 kts | 195° |
| 2026-05-08 07:26 | 26.14623 | 127.58367 | 5640 ft | 165 kts | 173° |
| 2026-05-08 07:26 | 26.13590 | 127.59023 | 4922 ft | 196 kts | 144° |
| 2026-05-08 07:26 | 26.12517 | 127.59671 | 5124 ft | 161 kts | 170° |
| 2026-05-08 07:26 | 26.11436 | 127.60092 | 4078 ft | 205 kts | 120° |
| 2026-05-08 07:27 | 26.10297 | 127.60918 | 3423 ft | 204 kts | 178° |
| 2026-05-08 07:27 | 26.08896 | 127.61109 | 2638 ft | 222 kts | 147° |
| 2026-05-08 07:27 | 26.08567 | 127.62552 | 691 ft | 253 kts | 54° |
| 2026-05-08 07:27 | 26.09704 | 127.63907 | 105 ft | 229 kts | 22° |
| 2026-05-08 07:28 | 26.10454 | 127.64097 | -1 ft | 18 kts | 248° |
| 2026-05-08 07:28 | 26.10424 | 127.64018 | 0 ft | 5 kts | 249° |
| 2026-05-08 07:28 | 26.10415 | 127.63994 | -1 ft | 2 kts | 249° |
| 2026-05-08 07:28 | 26.10411 | 127.63982 | -1 ft | 1 kts | 249° |
| 2026-05-08 07:29 | 26.10407 | 127.63972 | -1 ft | 1 kts | 250° |
| 2026-05-08 07:29 | 26.10405 | 127.63966 | -1 ft | 0 kts | 250° |
| 2026-05-08 07:29 | 26.10403 | 127.63960 | -1 ft | 0 kts | 250° |
| 2026-05-08 07:29 | 26.10401 | 127.63956 | -1 ft | 0 kts | 250° |
| 2026-05-08 07:30 | 26.10400 | 127.63952 | -1 ft | 0 kts | 250° |
| 2026-05-08 07:30 | 26.10398 | 127.63949 | -1 ft | 0 kts | 250° |
| 2026-05-08 07:30 | 26.10397 | 127.63946 | -1 ft | 0 kts | 250° |
| 2026-05-08 07:30 | 26.10396 | 127.63943 | -1 ft | 0 kts | 251° |